TIST/STT METAR and TAF weather

Enter ICAO airport designator
Station Type Date Time Source
TIST METAR 2019/04/20 22:53 UTC NOAA

TIST 202253Z 08013KT 10SM FEW030 27/19 A3005 RMK AO2 SLP174 T02670194


Station Type Date Time Source
TIST Decoded METAR 2019/04/20 22:53 UTC NOAA

Charlotte Amalie St. Thomas, Cyril E. King Airport, Virgin Islands (TIST) 18-20N 064-59W
Apr 20, 2019 - 06:53 PM EDT / 2019.04.20 2253 UTC
Wind: from the E (080 degrees) at 15 MPH (13 KT):0
Visibility: 10 mile(s):0
Sky conditions: mostly clear
Temperature: 80.1 F (26.7 C)
Dew Point: 66.9 F (19.4 C)
Relative Humidity: 64%
Pressure (altimeter): 30.05 in. Hg (1017 hPa)
ob: TIST 202253Z 08013KT 10SM FEW030 27/19 A3005 RMK AO2 SLP174 T02670194
cycle: 23

Station Type Date Time Source
TIST TAF 2019/04/20 21:28 UTC NOAA

TAF
AMD TIST 202120Z 2021/2118 10016KT P6SM FEW030
FM202300 09010KT P6SM FEW025
FM211300 12015G22KT P6SM VCSH FEW030 SCT050

Example: see airport list